sensor_id;sensor_type;location;lat;lon;timestamp;temperature;humidity
13600;DHT22;6871;51.34740610;4.31323160;2023-12-14T00:00:13;14.60;92.60
13600;DHT22;6871;51.34740610;4.31323160;2023-12-14T00:02:43;14.60;92.60
13600;DHT22;6871;51.34740610;4.31323160;2023-12-14T00:05:12;14.60;92.60
13600;DHT22;6871;51.34740610;4.31323160;2023-12-14T00:07:41;14.60;92.60
13600;DHT22;6871;51.34740610;4.31323160;2023-12-14T00:10:12;14.50;92.60
13600;DHT22;6871;51.34740610;4.31323160;2023-12-14T00:12:41;14.50;92.60
13600;DHT22;6871;51.34740610;4.31323160;2023-12-14T00:15:12;14.50;92.70
13600;DHT22;6871;51.34740610;4.31323160;2023-12-14T00:17:42;14.50;92.70
13600;DHT22;6871;51.34740610;4.31323160;2023-12-14T00:20:12;14.50;92.70
13600;DHT22;6871;51.34740610;4.31323160;2023-12-14T00:22:42;14.50;92.70
13600;DHT22;6871;51.34740610;4.31323160;2023-12-14T00:25:12;14.50;92.70
13600;DHT22;6871;51.34740610;4.31323160;2023-12-14T00:27:41;14.50;92.70
13600;DHT22;6871;51.34740610;4.31323160;2023-12-14T00:30:12;14.50;92.70
13600;DHT22;6871;51.34740610;4.31323160;2023-12-14T00:32:41;14.50;92.70
13600;DHT22;6871;51.34740610;4.31323160;2023-12-14T00:35:12;14.50;92.70
13600;DHT22;6871;51.34740610;4.31323160;2023-12-14T00:37:41;14.50;92.70
13600;DHT22;6871;51.34740610;4.31323160;2023-12-14T00:40:12;14.50;92.70
13600;DHT22;6871;51.34740610;4.31323160;2023-12-14T00:42:41;14.50;92.70
13600;DHT22;6871;51.34740610;4.31323160;2023-12-14T00:45:12;14.50;92.70
13600;DHT22;6871;51.34740610;4.31323160;2023-12-14T00:47:41;14.50;92.70
13600;DHT22;6871;51.34740610;4.31323160;2023-12-14T00:50:11;14.50;92.70
13600;DHT22;6871;51.34740610;4.31323160;2023-12-14T00:52:40;14.50;92.70
13600;DHT22;6871;51.34740610;4.31323160;2023-12-14T00:55:11;14.50;92.80
13600;DHT22;6871;51.34740610;4.31323160;2023-12-14T00:57:40;14.50;92.80
13600;DHT22;6871;51.34740610;4.31323160;2023-12-14T01:00:11;14.50;92.80
13600;DHT22;6871;51.34740610;4.31323160;2023-12-14T01:02:41;14.40;92.80
13600;DHT22;6871;51.34740610;4.31323160;2023-12-14T01:05:10;14.40;92.80
13600;DHT22;6871;51.34740610;4.31323160;2023-12-14T01:07:39;14.40;92.80
13600;DHT22;6871;51.34740610;4.31323160;2023-12-14T01:10:11;14.40;92.90
13600;DHT22;6871;51.34740610;4.31323160;2023-12-14T01:12:40;14.40;92.80
13600;DHT22;6871;51.34740610;4.31323160;2023-12-14T01:15:11;14.40;92.80
13600;DHT22;6871;51.34740610;4.31323160;2023-12-14T01:17:40;14.40;92.80
13600;DHT22;6871;51.34740610;4.31323160;2023-12-14T01:20:11;14.40;92.80
13600;DHT22;6871;51.34740610;4.31323160;2023-12-14T01:22:40;14.40;92.80
13600;DHT22;6871;51.34740610;4.31323160;2023-12-14T01:25:10;14.40;92.80
13600;DHT22;6871;51.34740610;4.31323160;2023-12-14T01:27:40;14.40;92.90
13600;DHT22;6871;51.34740610;4.31323160;2023-12-14T01:30:11;14.40;92.90
13600;DHT22;6871;51.34740610;4.31323160;2023-12-14T01:32:40;14.40;92.90
13600;DHT22;6871;51.34740610;4.31323160;2023-12-14T01:35:11;14.40;92.80
13600;DHT22;6871;51.34740610;4.31323160;2023-12-14T01:37:40;14.40;92.80
13600;DHT22;6871;51.34740610;4.31323160;2023-12-14T01:40:11;14.30;92.90
13600;DHT22;6871;51.34740610;4.31323160;2023-12-14T01:42:41;14.40;92.90
13600;DHT22;6871;51.34740610;4.31323160;2023-12-14T01:45:11;14.40;93.20
13600;DHT22;6871;51.34740610;4.31323160;2023-12-14T01:47:42;14.40;92.90
13600;DHT22;6871;51.34740610;4.31323160;2023-12-14T01:50:12;14.30;92.90
13600;DHT22;6871;51.34740610;4.31323160;2023-12-14T01:52:41;14.30;92.90
13600;DHT22;6871;51.34740610;4.31323160;2023-12-14T01:55:11;14.30;92.90
13600;DHT22;6871;51.34740610;4.31323160;2023-12-14T01:57:40;14.30;92.90
13600;DHT22;6871;51.34740610;4.31323160;2023-12-14T02:00:13;14.30;92.90
13600;DHT22;6871;51.34740610;4.31323160;2023-12-14T02:02:42;14.30;92.90
13600;DHT22;6871;51.34740610;4.31323160;2023-12-14T02:05:12;14.30;92.90
13600;DHT22;6871;51.34740610;4.31323160;2023-12-14T02:07:41;14.30;92.90
13600;DHT22;6871;51.34740610;4.31323160;2023-12-14T02:10:11;14.30;92.90
13600;DHT22;6871;51.34740610;4.31323160;2023-12-14T02:12:40;14.30;92.90
13600;DHT22;6871;51.34740610;4.31323160;2023-12-14T02:15:11;14.30;92.90
13600;DHT22;6871;51.34740610;4.31323160;2023-12-14T02:17:41;14.30;92.80
13600;DHT22;6871;51.34740610;4.31323160;2023-12-14T02:20:11;14.30;92.80
13600;DHT22;6871;51.34740610;4.31323160;2023-12-14T02:22:50;14.30;92.80
13600;DHT22;6871;51.34740610;4.31323160;2023-12-14T02:25:19;14.30;92.80
13600;DHT22;6871;51.34740610;4.31323160;2023-12-14T02:27:50;14.30;92.80
13600;DHT22;6871;51.34740610;4.31323160;2023-12-14T02:30:20;14.30;92.80
13600;DHT22;6871;51.34740610;4.31323160;2023-12-14T02:32:49;14.30;92.80
13600;DHT22;6871;51.34740610;4.31323160;2023-12-14T02:35:18;14.30;92.80
13600;DHT22;6871;51.34740610;4.31323160;2023-12-14T02:37:47;14.20;92.80
13600;DHT22;6871;51.34740610;4.31323160;2023-12-14T02:40:17;14.30;92.90
13600;DHT22;6871;51.34740610;4.31323160;2023-12-14T02:42:47;14.30;92.80
13600;DHT22;6871;51.34740610;4.31323160;2023-12-14T02:45:16;14.30;92.80
13600;DHT22;6871;51.34740610;4.31323160;2023-12-14T02:47:45;14.30;92.80
13600;DHT22;6871;51.34740610;4.31323160;2023-12-14T02:50:16;14.30;92.80
13600;DHT22;6871;51.34740610;4.31323160;2023-12-14T02:52:45;14.20;92.80
13600;DHT22;6871;51.34740610;4.31323160;2023-12-14T02:55:15;14.30;92.80
13600;DHT22;6871;51.34740610;4.31323160;2023-12-14T02:57:47;14.30;92.80
13600;DHT22;6871;51.34740610;4.31323160;2023-12-14T03:00:17;14.30;92.80
13600;DHT22;6871;51.34740610;4.31323160;2023-12-14T03:02:46;14.30;92.60
13600;DHT22;6871;51.34740610;4.31323160;2023-12-14T03:05:16;14.30;92.80
13600;DHT22;6871;51.34740610;4.31323160;2023-12-14T03:07:45;14.20;92.70
13600;DHT22;6871;51.34740610;4.31323160;2023-12-14T03:10:14;14.20;92.70
13600;DHT22;6871;51.34740610;4.31323160;2023-12-14T03:12:43;14.20;92.70
13600;DHT22;6871;51.34740610;4.31323160;2023-12-14T03:15:13;14.20;92.80
13600;DHT22;6871;51.34740610;4.31323160;2023-12-14T03:17:43;14.20;92.80
13600;DHT22;6871;51.34740610;4.31323160;2023-12-14T03:20:13;14.20;92.70
13600;DHT22;6871;51.34740610;4.31323160;2023-12-14T03:22:42;14.20;93.10
13600;DHT22;6871;51.34740610;4.31323160;2023-12-14T03:25:12;14.20;92.70
13600;DHT22;6871;51.34740610;4.31323160;2023-12-14T03:27:42;14.20;92.70
13600;DHT22;6871;51.34740610;4.31323160;2023-12-14T03:30:13;14.20;92.70
13600;DHT22;6871;51.34740610;4.31323160;2023-12-14T03:32:42;14.20;92.70
13600;DHT22;6871;51.34740610;4.31323160;2023-12-14T03:35:13;14.30;92.80
13600;DHT22;6871;51.34740610;4.31323160;2023-12-14T03:37:42;14.20;92.70
13600;DHT22;6871;51.34740610;4.31323160;2023-12-14T03:40:12;14.20;92.60
13600;DHT22;6871;51.34740610;4.31323160;2023-12-14T03:42:42;14.20;92.30
13600;DHT22;6871;51.34740610;4.31323160;2023-12-14T03:45:12;14.20;92.60
13600;DHT22;6871;51.34740610;4.31323160;2023-12-14T03:47:42;14.20;92.60
13600;DHT22;6871;51.34740610;4.31323160;2023-12-14T03:50:12;14.20;92.60
13600;DHT22;6871;51.34740610;4.31323160;2023-12-14T03:52:42;14.20;92.50
13600;DHT22;6871;51.34740610;4.31323160;2023-12-14T03:55:12;14.20;92.50
13600;DHT22;6871;51.34740610;4.31323160;2023-12-14T03:57:43;14.20;92.50
13600;DHT22;6871;51.34740610;4.31323160;2023-12-14T04:00:14;14.20;92.50
13600;DHT22;6871;51.34740610;4.31323160;2023-12-14T04:02:44;14.20;92.50
13600;DHT22;6871;51.34740610;4.31323160;2023-12-14T04:05:13;14.20;92.50
13600;DHT22;6871;51.34740610;4.31323160;2023-12-14T04:07:42;14.20;92.50
13600;DHT22;6871;51.34740610;4.31323160;2023-12-14T04:10:13;14.20;92.50
13600;DHT22;6871;51.34740610;4.31323160;2023-12-14T04:12:42;14.20;92.50
13600;DHT22;6871;51.34740610;4.31323160;2023-12-14T04:15:13;14.20;92.50
13600;DHT22;6871;51.34740610;4.31323160;2023-12-14T04:17:42;14.20;92.50
13600;DHT22;6871;51.34740610;4.31323160;2023-12-14T04:20:14;14.20;92.50
13600;DHT22;6871;51.34740610;4.31323160;2023-12-14T04:22:44;14.20;92.50
13600;DHT22;6871;51.34740610;4.31323160;2023-12-14T04:25:14;14.20;92.50
13600;DHT22;6871;51.34740610;4.31323160;2023-12-14T04:27:43;14.20;92.50
13600;DHT22;6871;51.34740610;4.31323160;2023-12-14T04:30:13;14.20;92.50
13600;DHT22;6871;51.34740610;4.31323160;2023-12-14T04:32:42;14.20;92.50
13600;DHT22;6871;51.34740610;4.31323160;2023-12-14T04:35:13;14.20;92.50
13600;DHT22;6871;51.34740610;4.31323160;2023-12-14T04:37:42;14.20;92.50
13600;DHT22;6871;51.34740610;4.31323160;2023-12-14T04:40:12;14.20;92.50
13600;DHT22;6871;51.34740610;4.31323160;2023-12-14T04:42:41;14.20;92.50
13600;DHT22;6871;51.34740610;4.31323160;2023-12-14T04:45:11;14.20;92.40
13600;DHT22;6871;51.34740610;4.31323160;2023-12-14T04:47:40;14.20;92.40
13600;DHT22;6871;51.34740610;4.31323160;2023-12-14T04:50:11;14.20;92.40
13600;DHT22;6871;51.34740610;4.31323160;2023-12-14T04:52:42;14.10;92.40
13600;DHT22;6871;51.34740610;4.31323160;2023-12-14T04:55:13;14.20;92.40
13600;DHT22;6871;51.34740610;4.31323160;2023-12-14T04:57:43;14.20;92.80
13600;DHT22;6871;51.34740610;4.31323160;2023-12-14T05:00:15;14.20;92.40
13600;DHT22;6871;51.34740610;4.31323160;2023-12-14T05:02:48;14.20;92.40
13600;DHT22;6871;51.34740610;4.31323160;2023-12-14T05:05:17;14.20;92.40
13600;DHT22;6871;51.34740610;4.31323160;2023-12-14T05:07:46;14.20;92.40
13600;DHT22;6871;51.34740610;4.31323160;2023-12-14T05:10:16;14.10;92.30
13600;DHT22;6871;51.34740610;4.31323160;2023-12-14T05:12:45;14.20;92.30
13600;DHT22;6871;51.34740610;4.31323160;2023-12-14T05:15:15;14.10;92.30
13600;DHT22;6871;51.34740610;4.31323160;2023-12-14T05:17:45;14.10;92.30
13600;DHT22;6871;51.34740610;4.31323160;2023-12-14T05:20:15;14.10;92.30
13600;DHT22;6871;51.34740610;4.31323160;2023-12-14T05:22:44;14.10;92.30
13600;DHT22;6871;51.34740610;4.31323160;2023-12-14T05:25:13;14.10;92.30
13600;DHT22;6871;51.34740610;4.31323160;2023-12-14T05:27:43;14.10;92.30
13600;DHT22;6871;51.34740610;4.31323160;2023-12-14T05:30:13;14.10;92.30
13600;DHT22;6871;51.34740610;4.31323160;2023-12-14T05:32:43;14.10;92.30
13600;DHT22;6871;51.34740610;4.31323160;2023-12-14T05:35:13;14.10;92.30
13600;DHT22;6871;51.34740610;4.31323160;2023-12-14T05:37:42;14.10;92.30
13600;DHT22;6871;51.34740610;4.31323160;2023-12-14T05:40:13;14.10;92.30
13600;DHT22;6871;51.34740610;4.31323160;2023-12-14T05:42:42;14.10;92.30
13600;DHT22;6871;51.34740610;4.31323160;2023-12-14T05:45:13;14.10;92.60
13600;DHT22;6871;51.34740610;4.31323160;2023-12-14T05:47:42;14.10;92.30
13600;DHT22;6871;51.34740610;4.31323160;2023-12-14T05:50:11;14.10;92.30
13600;DHT22;6871;51.34740610;4.31323160;2023-12-14T05:52:41;14.10;92.30
13600;DHT22;6871;51.34740610;4.31323160;2023-12-14T05:55:11;14.10;92.30
13600;DHT22;6871;51.34740610;4.31323160;2023-12-14T05:57:41;14.10;92.30
13600;DHT22;6871;51.34740610;4.31323160;2023-12-14T06:00:12;14.10;92.30
13600;DHT22;6871;51.34740610;4.31323160;2023-12-14T06:02:41;14.10;92.30
13600;DHT22;6871;51.34740610;4.31323160;2023-12-14T06:05:12;14.10;92.30
13600;DHT22;6871;51.34740610;4.31323160;2023-12-14T06:07:41;14.10;92.30
13600;DHT22;6871;51.34740610;4.31323160;2023-12-14T06:10:11;14.10;92.30
13600;DHT22;6871;51.34740610;4.31323160;2023-12-14T06:12:41;14.10;92.20
13600;DHT22;6871;51.34740610;4.31323160;2023-12-14T06:15:11;14.10;92.20
13600;DHT22;6871;51.34740610;4.31323160;2023-12-14T06:17:41;14.10;92.30
13600;DHT22;6871;51.34740610;4.31323160;2023-12-14T06:20:11;14.10;92.20
13600;DHT22;6871;51.34740610;4.31323160;2023-12-14T06:22:41;14.20;92.20
13600;DHT22;6871;51.34740610;4.31323160;2023-12-14T06:25:11;14.30;92.10
13600;DHT22;6871;51.34740610;4.31323160;2023-12-14T06:27:42;14.30;92.00
13600;DHT22;6871;51.34740610;4.31323160;2023-12-14T06:30:14;14.30;92.00
13600;DHT22;6871;51.34740610;4.31323160;2023-12-14T06:32:43;14.40;91.90
13600;DHT22;6871;51.34740610;4.31323160;2023-12-14T06:35:13;14.40;91.80
13600;DHT22;6871;51.34740610;4.31323160;2023-12-14T06:37:42;14.40;91.90
13600;DHT22;6871;51.34740610;4.31323160;2023-12-14T06:40:12;14.40;91.70
13600;DHT22;6871;51.34740610;4.31323160;2023-12-14T06:42:41;14.50;91.60
13600;DHT22;6871;51.34740610;4.31323160;2023-12-14T06:45:11;14.50;91.50
13600;DHT22;6871;51.34740610;4.31323160;2023-12-14T06:47:41;14.50;91.50
13600;DHT22;6871;51.34740610;4.31323160;2023-12-14T06:50:12;14.50;91.40
13600;DHT22;6871;51.34740610;4.31323160;2023-12-14T06:52:44;14.60;91.40
13600;DHT22;6871;51.34740610;4.31323160;2023-12-14T06:55:14;14.60;91.40
13600;DHT22;6871;51.34740610;4.31323160;2023-12-14T06:57:44;14.60;91.40
13600;DHT22;6871;51.34740610;4.31323160;2023-12-14T07:00:16;14.60;91.30
13600;DHT22;6871;51.34740610;4.31323160;2023-12-14T07:02:45;14.70;91.30
13600;DHT22;6871;51.34740610;4.31323160;2023-12-14T07:05:14;14.70;91.20
13600;DHT22;6871;51.34740610;4.31323160;2023-12-14T07:07:43;14.70;91.10
13600;DHT22;6871;51.34740610;4.31323160;2023-12-14T07:10:13;14.70;91.10
13600;DHT22;6871;51.34740610;4.31323160;2023-12-14T07:12:42;14.70;91.10
13600;DHT22;6871;51.34740610;4.31323160;2023-12-14T07:15:13;14.70;91.10
13600;DHT22;6871;51.34740610;4.31323160;2023-12-14T07:17:42;14.80;91.00
13600;DHT22;6871;51.34740610;4.31323160;2023-12-14T07:20:12;14.80;91.30
13600;DHT22;6871;51.34740610;4.31323160;2023-12-14T07:22:41;14.80;90.90
13600;DHT22;6871;51.34740610;4.31323160;2023-12-14T07:25:12;14.80;90.90
13600;DHT22;6871;51.34740610;4.31323160;2023-12-14T07:27:41;14.80;90.90
13600;DHT22;6871;51.34740610;4.31323160;2023-12-14T07:30:12;14.80;91.30
13600;DHT22;6871;51.34740610;4.31323160;2023-12-14T07:32:42;14.80;91.30
13600;DHT22;6871;51.34740610;4.31323160;2023-12-14T07:35:12;14.80;91.20
13600;DHT22;6871;51.34740610;4.31323160;2023-12-14T07:37:41;14.90;91.10
13600;DHT22;6871;51.34740610;4.31323160;2023-12-14T07:40:12;14.80;91.00
13600;DHT22;6871;51.34740610;4.31323160;2023-12-14T07:42:41;14.80;90.90
13600;DHT22;6871;51.34740610;4.31323160;2023-12-14T07:45:20;14.90;90.90
13600;DHT22;6871;51.34740610;4.31323160;2023-12-14T07:47:49;14.90;90.90
13600;DHT22;6871;51.34740610;4.31323160;2023-12-14T07:50:19;14.90;90.90
13600;DHT22;6871;51.34740610;4.31323160;2023-12-14T07:52:48;14.90;90.80
13600;DHT22;6871;51.34740610;4.31323160;2023-12-14T07:55:17;14.90;90.70
13600;DHT22;6871;51.34740610;4.31323160;2023-12-14T07:57:46;14.90;90.70
13600;DHT22;6871;51.34740610;4.31323160;2023-12-14T08:00:17;14.90;90.60
13600;DHT22;6871;51.34740610;4.31323160;2023-12-14T08:02:46;14.90;90.60
13600;DHT22;6871;51.34740610;4.31323160;2023-12-14T08:05:15;15.00;90.60
13600;DHT22;6871;51.34740610;4.31323160;2023-12-14T08:07:44;15.00;90.80
13600;DHT22;6871;51.34740610;4.31323160;2023-12-14T08:10:14;14.90;87.80
13600;DHT22;6871;51.34740610;4.31323160;2023-12-14T08:12:43;14.80;88.50
13600;DHT22;6871;51.34740610;4.31323160;2023-12-14T08:15:14;14.70;89.10
13600;DHT22;6871;51.34740610;4.31323160;2023-12-14T08:17:43;14.70;89.70
13600;DHT22;6871;51.34740610;4.31323160;2023-12-14T08:20:13;14.70;90.00
13600;DHT22;6871;51.34740610;4.31323160;2023-12-14T08:22:43;14.80;90.20
13600;DHT22;6871;51.34740610;4.31323160;2023-12-14T08:25:14;14.90;90.30
13600;DHT22;6871;51.34740610;4.31323160;2023-12-14T08:27:44;14.90;90.00
13600;DHT22;6871;51.34740610;4.31323160;2023-12-14T08:30:14;14.90;88.80
13600;DHT22;6871;51.34740610;4.31323160;2023-12-14T08:32:44;14.90;88.80
13600;DHT22;6871;51.34740610;4.31323160;2023-12-14T08:35:14;14.90;89.40
13600;DHT22;6871;51.34740610;4.31323160;2023-12-14T08:37:43;14.90;89.80
13600;DHT22;6871;51.34740610;4.31323160;2023-12-14T08:40:14;15.00;89.90
13600;DHT22;6871;51.34740610;4.31323160;2023-12-14T08:42:43;15.00;90.10
13600;DHT22;6871;51.34740610;4.31323160;2023-12-14T08:45:13;15.00;90.30
13600;DHT22;6871;51.34740610;4.31323160;2023-12-14T08:47:43;15.10;90.40
13600;DHT22;6871;51.34740610;4.31323160;2023-12-14T08:50:12;15.10;90.60
13600;DHT22;6871;51.34740610;4.31323160;2023-12-14T08:52:42;15.20;90.60
13600;DHT22;6871;51.34740610;4.31323160;2023-12-14T08:55:12;15.20;90.90
13600;DHT22;6871;51.34740610;4.31323160;2023-12-14T08:57:42;15.30;90.90
13600;DHT22;6871;51.34740610;4.31323160;2023-12-14T09:00:13;15.30;91.20
13600;DHT22;6871;51.34740610;4.31323160;2023-12-14T09:02:43;15.40;91.40
13600;DHT22;6871;51.34740610;4.31323160;2023-12-14T09:05:13;15.40;91.20
13600;DHT22;6871;51.34740610;4.31323160;2023-12-14T09:07:44;15.30;91.10
13600;DHT22;6871;51.34740610;4.31323160;2023-12-14T09:10:13;15.40;91.20
13600;DHT22;6871;51.34740610;4.31323160;2023-12-14T09:12:43;15.40;91.70
13600;DHT22;6871;51.34740610;4.31323160;2023-12-14T09:15:12;15.40;91.40
13600;DHT22;6871;51.34740610;4.31323160;2023-12-14T09:17:43;15.40;91.90
13600;DHT22;6871;51.34740610;4.31323160;2023-12-14T09:20:12;15.40;91.80
13600;DHT22;6871;51.34740610;4.31323160;2023-12-14T09:22:42;15.40;92.00
13600;DHT22;6871;51.34740610;4.31323160;2023-12-14T09:25:12;15.40;92.10
13600;DHT22;6871;51.34740610;4.31323160;2023-12-14T09:27:41;15.40;91.90
13600;DHT22;6871;51.34740610;4.31323160;2023-12-14T09:30:13;15.50;92.10
13600;DHT22;6871;51.34740610;4.31323160;2023-12-14T09:32:43;15.50;92.10
13600;DHT22;6871;51.34740610;4.31323160;2023-12-14T09:35:14;15.50;91.90
13600;DHT22;6871;51.34740610;4.31323160;2023-12-14T09:37:43;15.50;91.90
13600;DHT22;6871;51.34740610;4.31323160;2023-12-14T09:40:14;15.50;91.90
13600;DHT22;6871;51.34740610;4.31323160;2023-12-14T09:42:44;15.50;91.90
13600;DHT22;6871;51.34740610;4.31323160;2023-12-14T09:45:14;15.60;92.00
13600;DHT22;6871;51.34740610;4.31323160;2023-12-14T09:47:45;15.50;91.80
13600;DHT22;6871;51.34740610;4.31323160;2023-12-14T09:50:15;15.60;91.90
13600;DHT22;6871;51.34740610;4.31323160;2023-12-14T09:52:44;15.60;92.40
13600;DHT22;6871;51.34740610;4.31323160;2023-12-14T09:55:15;15.50;92.90
13600;DHT22;6871;51.34740610;4.31323160;2023-12-14T09:57:44;15.50;92.70
13600;DHT22;6871;51.34740610;4.31323160;2023-12-14T10:00:31;15.60;92.80
13600;DHT22;6871;51.34740610;4.31323160;2023-12-14T10:03:19;15.50;92.80
13600;DHT22;6871;51.34740610;4.31323160;2023-12-14T10:05:49;15.50;92.90
13600;DHT22;6871;51.34740610;4.31323160;2023-12-14T10:08:19;15.60;92.90
13600;DHT22;6871;51.34740610;4.31323160;2023-12-14T10:10:50;15.60;93.20
13600;DHT22;6871;51.34740610;4.31323160;2023-12-14T10:13:21;15.60;93.20
13600;DHT22;6871;51.34740610;4.31323160;2023-12-14T10:15:52;15.60;93.20
13600;DHT22;6871;51.34740610;4.31323160;2023-12-14T10:18:25;15.60;93.30
13600;DHT22;6871;51.34740610;4.31323160;2023-12-14T10:20:54;15.60;93.40
13600;DHT22;6871;51.34740610;4.31323160;2023-12-14T10:23:24;15.60;93.00
13600;DHT22;6871;51.34740610;4.31323160;2023-12-14T10:25:55;15.50;92.60
13600;DHT22;6871;51.34740610;4.31323160;2023-12-14T10:28:25;15.60;92.40
13600;DHT22;6871;51.34740610;4.31323160;2023-12-14T10:30:54;15.50;92.20
13600;DHT22;6871;51.34740610;4.31323160;2023-12-14T10:33:24;15.50;92.20
13600;DHT22;6871;51.34740610;4.31323160;2023-12-14T10:35:54;15.50;92.10
13600;DHT22;6871;51.34740610;4.31323160;2023-12-14T10:38:24;15.40;92.50
13600;DHT22;6871;51.34740610;4.31323160;2023-12-14T10:40:56;15.40;92.90
13600;DHT22;6871;51.34740610;4.31323160;2023-12-14T10:43:26;15.40;92.70
13600;DHT22;6871;51.34740610;4.31323160;2023-12-14T10:45:57;15.40;92.60
13600;DHT22;6871;51.34740610;4.31323160;2023-12-14T10:48:26;15.40;92.40
13600;DHT22;6871;51.34740610;4.31323160;2023-12-14T10:50:57;15.40;92.20
13600;DHT22;6871;51.34740610;4.31323160;2023-12-14T10:53:28;15.40;92.00
13600;DHT22;6871;51.34740610;4.31323160;2023-12-14T10:56:00;15.40;91.90
13600;DHT22;6871;51.34740610;4.31323160;2023-12-14T10:58:47;15.40;91.90
13600;DHT22;6871;51.34740610;4.31323160;2023-12-14T11:01:18;15.40;92.00
13600;DHT22;6871;51.34740610;4.31323160;2023-12-14T11:03:48;15.40;92.00
13600;DHT22;6871;51.34740610;4.31323160;2023-12-14T11:06:32;15.40;92.00
13600;DHT22;6871;51.34740610;4.31323160;2023-12-14T11:09:04;15.40;92.00
13600;DHT22;6871;51.34740610;4.31323160;2023-12-14T11:11:41;15.40;92.00
13600;DHT22;6871;51.34740610;4.31323160;2023-12-14T11:14:12;15.40;92.10
13600;DHT22;6871;51.34740610;4.31323160;2023-12-14T11:16:43;15.40;92.10
13600;DHT22;6871;51.34740610;4.31323160;2023-12-14T11:19:29;15.30;92.00
13600;DHT22;6871;51.34740610;4.31323160;2023-12-14T11:22:12;15.30;91.80
13600;DHT22;6871;51.34740610;4.31323160;2023-12-14T11:24:52;15.30;91.60
13600;DHT22;6871;51.34740610;4.31323160;2023-12-14T11:27:27;15.20;91.30
13600;DHT22;6871;51.34740610;4.31323160;2023-12-14T11:29:57;15.20;91.30
13600;DHT22;6871;51.34740610;4.31323160;2023-12-14T11:32:27;15.20;91.40
13600;DHT22;6871;51.34740610;4.31323160;2023-12-14T11:34:57;15.20;91.40
13600;DHT22;6871;51.34740610;4.31323160;2023-12-14T11:37:28;15.20;91.40
13600;DHT22;6871;51.34740610;4.31323160;2023-12-14T11:39:57;15.10;91.40
13600;DHT22;6871;51.34740610;4.31323160;2023-12-14T11:42:26;15.10;91.40
13600;DHT22;6871;51.34740610;4.31323160;2023-12-14T11:44:57;15.10;91.50
13600;DHT22;6871;51.34740610;4.31323160;2023-12-14T11:47:27;15.20;91.50
13600;DHT22;6871;51.34740610;4.31323160;2023-12-14T11:49:56;15.10;91.50
13600;DHT22;6871;51.34740610;4.31323160;2023-12-14T11:52:25;15.10;91.50
13600;DHT22;6871;51.34740610;4.31323160;2023-12-14T11:54:54;15.00;91.70
13600;DHT22;6871;51.34740610;4.31323160;2023-12-14T11:57:28;15.00;91.90
13600;DHT22;6871;51.34740610;4.31323160;2023-12-14T12:00:00;15.00;91.80
13600;DHT22;6871;51.34740610;4.31323160;2023-12-14T12:02:29;15.10;91.70
13600;DHT22;6871;51.34740610;4.31323160;2023-12-14T12:04:58;15.00;91.60
13600;DHT22;6871;51.34740610;4.31323160;2023-12-14T12:07:28;15.10;91.80
13600;DHT22;6871;51.34740610;4.31323160;2023-12-14T12:09:58;15.10;91.60
13600;DHT22;6871;51.34740610;4.31323160;2023-12-14T12:12:27;15.10;91.60
13600;DHT22;6871;51.34740610;4.31323160;2023-12-14T12:14:56;15.10;91.60
13600;DHT22;6871;51.34740610;4.31323160;2023-12-14T12:17:26;15.10;92.00
13600;DHT22;6871;51.34740610;4.31323160;2023-12-14T12:19:56;15.10;91.70
13600;DHT22;6871;51.34740610;4.31323160;2023-12-14T12:22:25;15.10;91.90
13600;DHT22;6871;51.34740610;4.31323160;2023-12-14T12:24:54;15.10;91.90
13600;DHT22;6871;51.34740610;4.31323160;2023-12-14T12:27:24;15.10;91.80
13600;DHT22;6871;51.34740610;4.31323160;2023-12-14T12:29:53;15.10;91.60
13600;DHT22;6871;51.34740610;4.31323160;2023-12-14T12:32:23;15.00;91.60
13600;DHT22;6871;51.34740610;4.31323160;2023-12-14T12:34:52;15.00;91.60
13600;DHT22;6871;51.34740610;4.31323160;2023-12-14T12:37:21;15.00;91.40
13600;DHT22;6871;51.34740610;4.31323160;2023-12-14T12:39:51;15.00;91.20
13600;DHT22;6871;51.34740610;4.31323160;2023-12-14T12:42:20;15.00;91.20
13600;DHT22;6871;51.34740610;4.31323160;2023-12-14T12:44:50;15.00;91.10
13600;DHT22;6871;51.34740610;4.31323160;2023-12-14T12:47:19;15.00;91.20
13600;DHT22;6871;51.34740610;4.31323160;2023-12-14T12:49:48;15.00;91.10
13600;DHT22;6871;51.34740610;4.31323160;2023-12-14T12:52:18;14.90;90.70
13600;DHT22;6871;51.34740610;4.31323160;2023-12-14T12:54:47;14.90;90.80
13600;DHT22;6871;51.34740610;4.31323160;2023-12-14T12:57:17;14.90;90.60
13600;DHT22;6871;51.34740610;4.31323160;2023-12-14T12:59:46;14.90;90.10
13600;DHT22;6871;51.34740610;4.31323160;2023-12-14T13:02:16;14.90;90.20
13600;DHT22;6871;51.34740610;4.31323160;2023-12-14T13:04:46;15.00;90.10
13600;DHT22;6871;51.34740610;4.31323160;2023-12-14T13:07:15;15.00;89.80
13600;DHT22;6871;51.34740610;4.31323160;2023-12-14T13:09:46;15.00;89.70
13600;DHT22;6871;51.34740610;4.31323160;2023-12-14T13:12:15;14.90;89.20
13600;DHT22;6871;51.34740610;4.31323160;2023-12-14T13:14:44;14.90;90.00
13600;DHT22;6871;51.34740610;4.31323160;2023-12-14T13:17:14;14.90;90.00
13600;DHT22;6871;51.34740610;4.31323160;2023-12-14T13:19:44;14.90;90.10
13600;DHT22;6871;51.34740610;4.31323160;2023-12-14T13:22:13;14.90;90.20
13600;DHT22;6871;51.34740610;4.31323160;2023-12-14T13:24:43;14.90;90.30
13600;DHT22;6871;51.34740610;4.31323160;2023-12-14T13:27:12;14.90;90.10
13600;DHT22;6871;51.34740610;4.31323160;2023-12-14T13:29:41;14.90;90.00
13600;DHT22;6871;51.34740610;4.31323160;2023-12-14T13:32:11;14.90;90.20
13600;DHT22;6871;51.34740610;4.31323160;2023-12-14T13:34:40;14.80;90.40
13600;DHT22;6871;51.34740610;4.31323160;2023-12-14T13:37:10;14.80;90.20
13600;DHT22;6871;51.34740610;4.31323160;2023-12-14T13:39:39;14.80;90.40
13600;DHT22;6871;51.34740610;4.31323160;2023-12-14T13:42:10;14.80;90.60
13600;DHT22;6871;51.34740610;4.31323160;2023-12-14T13:44:40;14.80;90.70
13600;DHT22;6871;51.34740610;4.31323160;2023-12-14T13:47:09;14.80;91.10
13600;DHT22;6871;51.34740610;4.31323160;2023-12-14T13:49:38;14.80;91.60